sensor_id;sensor_type;location;lat;lon;timestamp;pressure;altitude;pressure_sealevel;temperature;humidity
65716;BME280;63484;52.054;8.518;2023-07-16T00:00:53;99925.06;;;20.31;77.95
65716;BME280;63484;52.054;8.518;2023-07-16T00:05:55;99921.06;;;20.27;78.28
65716;BME280;63484;52.054;8.518;2023-07-16T00:10:58;99937.59;;;20.22;78.15
65716;BME280;63484;52.054;8.518;2023-07-16T00:16:02;99937.13;;;20.19;78.14
65716;BME280;63484;52.054;8.518;2023-07-16T00:21:04;99925.59;;;20.18;77.54
65716;BME280;63484;52.054;8.518;2023-07-16T00:26:07;99911.75;;;20.23;76.40
65716;BME280;63484;52.054;8.518;2023-07-16T00:31:10;99933.44;;;20.20;76.64
65716;BME280;63484;52.054;8.518;2023-07-16T00:36:11;99942.09;;;20.22;75.59
65716;BME280;63484;52.054;8.518;2023-07-16T00:41:14;99944.25;;;20.26;75.93
65716;BME280;63484;52.054;8.518;2023-07-16T00:46:16;99954.78;;;20.28;75.05
65716;BME280;63484;52.054;8.518;2023-07-16T00:51:21;99958.47;;;20.19;75.46
65716;BME280;63484;52.054;8.518;2023-07-16T00:56:25;99940.81;;;20.18;75.79
65716;BME280;63484;52.054;8.518;2023-07-16T01:01:26;99948.47;;;20.13;75.71
65716;BME280;63484;52.054;8.518;2023-07-16T01:06:33;99963.00;;;20.02;75.90
65716;BME280;63484;52.054;8.518;2023-07-16T01:11:37;99970.19;;;20.02;75.87
65716;BME280;63484;52.054;8.518;2023-07-16T01:16:41;99969.50;;;20.00;75.89
65716;BME280;63484;52.054;8.518;2023-07-16T01:21:47;99965.50;;;19.96;76.04
65716;BME280;63484;52.054;8.518;2023-07-16T01:27:08;99974.00;;;19.99;76.05
65716;BME280;63484;52.054;8.518;2023-07-16T01:32:16;99965.34;;;19.97;76.58
65716;BME280;63484;52.054;8.518;2023-07-16T01:37:18;99974.88;;;19.92;76.29
65716;BME280;63484;52.054;8.518;2023-07-16T01:42:20;99963.03;;;19.78;77.92
65716;BME280;63484;52.054;8.518;2023-07-16T01:47:30;99957.72;;;19.70;78.51
65716;BME280;63484;52.054;8.518;2023-07-16T01:52:37;99963.22;;;19.69;78.58
65716;BME280;63484;52.054;8.518;2023-07-16T01:57:38;99969.56;;;19.60;79.37
65716;BME280;63484;52.054;8.518;2023-07-16T02:02:41;99971.56;;;19.58;79.82
65716;BME280;63484;52.054;8.518;2023-07-16T02:07:43;99976.56;;;19.53;79.92
65716;BME280;63484;52.054;8.518;2023-07-16T02:12:45;99979.25;;;19.45;79.87
65716;BME280;63484;52.054;8.518;2023-07-16T02:17:48;99979.56;;;19.34;80.63
65716;BME280;63484;52.054;8.518;2023-07-16T02:22:50;99975.53;;;19.21;81.23
65716;BME280;63484;52.054;8.518;2023-07-16T02:27:52;99995.69;;;19.16;82.26
65716;BME280;63484;52.054;8.518;2023-07-16T02:32:58;100003.19;;;19.20;82.01
65716;BME280;63484;52.054;8.518;2023-07-16T02:38:00;100005.50;;;19.15;82.23
65716;BME280;63484;52.054;8.518;2023-07-16T02:43:02;100003.50;;;19.09;83.74
65716;BME280;63484;52.054;8.518;2023-07-16T02:48:06;100006.34;;;19.08;84.10
65716;BME280;63484;52.054;8.518;2023-07-16T02:53:08;100016.16;;;19.07;84.08
65716;BME280;63484;52.054;8.518;2023-07-16T02:58:10;100019.59;;;18.92;84.51
65716;BME280;63484;52.054;8.518;2023-07-16T03:03:13;100025.91;;;18.83;85.66
65716;BME280;63484;52.054;8.518;2023-07-16T03:08:14;100037.34;;;18.67;86.67
65716;BME280;63484;52.054;8.518;2023-07-16T03:13:18;100030.13;;;18.60;86.87
65716;BME280;63484;52.054;8.518;2023-07-16T03:18:21;100040.59;;;18.53;87.24
65716;BME280;63484;52.054;8.518;2023-07-16T03:23:23;100037.75;;;18.55;87.95
65716;BME280;63484;52.054;8.518;2023-07-16T03:28:26;100047.88;;;18.51;87.44
65716;BME280;63484;52.054;8.518;2023-07-16T03:33:29;100057.38;;;18.46;87.90
65716;BME280;63484;52.054;8.518;2023-07-16T03:38:31;100071.53;;;18.46;87.96
65716;BME280;63484;52.054;8.518;2023-07-16T03:43:33;100074.47;;;18.43;87.85
65716;BME280;63484;52.054;8.518;2023-07-16T03:48:47;100075.47;;;18.42;88.46
65716;BME280;63484;52.054;8.518;2023-07-16T03:53:49;100074.63;;;18.42;88.97
65716;BME280;63484;52.054;8.518;2023-07-16T03:58:51;100089.78;;;18.41;88.85
65716;BME280;63484;52.054;8.518;2023-07-16T04:03:55;100089.78;;;18.41;89.21
65716;BME280;63484;52.054;8.518;2023-07-16T04:08:57;100095.66;;;18.45;88.89
65716;BME280;63484;52.054;8.518;2023-07-16T04:13:59;100100.13;;;18.44;89.30
65716;BME280;63484;52.054;8.518;2023-07-16T04:19:02;100108.16;;;18.52;88.38
65716;BME280;63484;52.054;8.518;2023-07-16T04:24:05;100109.22;;;18.59;87.88
65716;BME280;63484;52.054;8.518;2023-07-16T04:29:07;100113.25;;;18.71;86.14
65716;BME280;63484;52.054;8.518;2023-07-16T04:34:10;100125.50;;;18.82;84.91
65716;BME280;63484;52.054;8.518;2023-07-16T04:39:12;100119.56;;;18.96;83.95
65716;BME280;63484;52.054;8.518;2023-07-16T04:44:14;100133.06;;;19.02;83.78
65716;BME280;63484;52.054;8.518;2023-07-16T04:49:17;100120.44;;;19.04;83.43
65716;BME280;63484;52.054;8.518;2023-07-16T04:54:18;100118.94;;;19.10;82.49
65716;BME280;63484;52.054;8.518;2023-07-16T04:59:20;100125.81;;;19.20;82.28
65716;BME280;63484;52.054;8.518;2023-07-16T05:04:23;100128.53;;;19.28;81.95
65716;BME280;63484;52.054;8.518;2023-07-16T05:09:25;100137.53;;;19.36;81.06
65716;BME280;63484;52.054;8.518;2023-07-16T05:14:28;100137.91;;;19.49;80.80
65716;BME280;63484;52.054;8.518;2023-07-16T05:19:31;100137.94;;;19.57;79.75
65716;BME280;63484;52.054;8.518;2023-07-16T05:24:33;100138.16;;;19.71;78.23
65716;BME280;63484;52.054;8.518;2023-07-16T05:29:34;100143.81;;;19.76;77.03
65716;BME280;63484;52.054;8.518;2023-07-16T05:34:37;100153.00;;;19.82;77.30
65716;BME280;63484;52.054;8.518;2023-07-16T05:39:39;100154.84;;;19.89;75.23
65716;BME280;63484;52.054;8.518;2023-07-16T05:44:43;100161.88;;;20.06;73.53
65716;BME280;63484;52.054;8.518;2023-07-16T05:49:47;100166.41;;;20.22;71.31
65716;BME280;63484;52.054;8.518;2023-07-16T05:54:49;100175.78;;;20.34;69.56
65716;BME280;63484;52.054;8.518;2023-07-16T05:59:53;100171.44;;;20.49;65.73
65716;BME280;63484;52.054;8.518;2023-07-16T06:04:56;100188.44;;;20.48;63.51
65716;BME280;63484;52.054;8.518;2023-07-16T06:09:57;100202.63;;;20.48;61.48
65716;BME280;63484;52.054;8.518;2023-07-16T06:14:59;100196.44;;;20.56;59.45
65716;BME280;63484;52.054;8.518;2023-07-16T06:20:03;100209.63;;;20.74;57.83
65716;BME280;63484;52.054;8.518;2023-07-16T06:25:09;100205.44;;;20.87;58.85
65716;BME280;63484;52.054;8.518;2023-07-16T06:30:11;100215.44;;;20.93;57.16
65716;BME280;63484;52.054;8.518;2023-07-16T06:35:16;100224.63;;;21.15;57.04
65716;BME280;63484;52.054;8.518;2023-07-16T06:40:18;100236.75;;;21.41;54.96
65716;BME280;63484;52.054;8.518;2023-07-16T06:45:20;100243.28;;;21.69;53.36
65716;BME280;63484;52.054;8.518;2023-07-16T06:50:23;100254.09;;;23.05;49.67
65716;BME280;63484;52.054;8.518;2023-07-16T06:55:25;100268.94;;;25.42;43.96
65716;BME280;63484;52.054;8.518;2023-07-16T07:00:26;100268.16;;;27.41;40.49
65716;BME280;63484;52.054;8.518;2023-07-16T07:05:30;100267.03;;;29.30;35.28
65716;BME280;63484;52.054;8.518;2023-07-16T07:10:31;100269.13;;;27.59;38.05
65716;BME280;63484;52.054;8.518;2023-07-16T07:15:33;100277.13;;;27.98;36.45
65716;BME280;63484;52.054;8.518;2023-07-16T07:20:36;100281.59;;;28.24;35.99
65716;BME280;63484;52.054;8.518;2023-07-16T07:25:40;100277.06;;;28.49;34.86
65716;BME280;63484;52.054;8.518;2023-07-16T07:30:42;100273.69;;;25.40;41.00
65716;BME280;63484;52.054;8.518;2023-07-16T07:35:45;100281.84;;;27.52;37.08
65716;BME280;63484;52.054;8.518;2023-07-16T07:40:46;100278.28;;;26.34;38.65
65716;BME280;63484;52.054;8.518;2023-07-16T07:45:48;100293.72;;;30.94;31.90
65716;BME280;63484;52.054;8.518;2023-07-16T07:50:51;100293.88;;;30.69;30.57
65716;BME280;63484;52.054;8.518;2023-07-16T07:55:54;100293.19;;;29.42;32.60
65716;BME280;63484;52.054;8.518;2023-07-16T08:00:55;100298.69;;;30.85;30.55
65716;BME280;63484;52.054;8.518;2023-07-16T08:05:58;100304.19;;;31.32;28.72
65716;BME280;63484;52.054;8.518;2023-07-16T08:11:00;100308.97;;;32.38;29.39
65716;BME280;63484;52.054;8.518;2023-07-16T08:16:02;100303.09;;;31.90;27.95
65716;BME280;63484;52.054;8.518;2023-07-16T08:21:07;100310.31;;;31.50;28.47
65716;BME280;63484;52.054;8.518;2023-07-16T08:26:09;100311.06;;;28.38;31.98
65716;BME280;63484;52.054;8.518;2023-07-16T08:31:13;100312.19;;;26.76;34.29
65716;BME280;63484;52.054;8.518;2023-07-16T08:36:16;100296.06;;;25.13;38.13
65716;BME280;63484;52.054;8.518;2023-07-16T08:41:17;100293.91;;;25.57;38.34
65716;BME280;63484;52.054;8.518;2023-07-16T08:46:22;100309.25;;;24.45;41.00
65716;BME280;63484;52.054;8.518;2023-07-16T08:51:25;100303.13;;;24.30;40.57
65716;BME280;63484;52.054;8.518;2023-07-16T08:56:28;100325.03;;;23.98;41.65
65716;BME280;63484;52.054;8.518;2023-07-16T09:01:29;100318.84;;;24.90;40.81
65716;BME280;63484;52.054;8.518;2023-07-16T09:06:33;100330.06;;;24.72;41.44
65716;BME280;63484;52.054;8.518;2023-07-16T09:11:34;100332.44;;;24.10;40.86
65716;BME280;63484;52.054;8.518;2023-07-16T09:16:36;100326.44;;;23.79;41.58
65716;BME280;63484;52.054;8.518;2023-07-16T09:21:39;100324.84;;;24.71;40.85
65716;BME280;63484;52.054;8.518;2023-07-16T09:26:48;100332.22;;;25.04;40.24
65716;BME280;63484;52.054;8.518;2023-07-16T09:31:54;100336.97;;;24.81;40.57
65716;BME280;63484;52.054;8.518;2023-07-16T09:36:58;100332.63;;;25.01;40.29
65716;BME280;63484;52.054;8.518;2023-07-16T09:42:01;100351.13;;;24.33;41.24
65716;BME280;63484;52.054;8.518;2023-07-16T09:47:05;100350.97;;;23.91;42.08
65716;BME280;63484;52.054;8.518;2023-07-16T09:52:09;100345.06;;;24.67;40.71
65716;BME280;63484;52.054;8.518;2023-07-16T09:57:11;100339.97;;;24.93;39.48
65716;BME280;63484;52.054;8.518;2023-07-16T10:02:14;100339.91;;;25.07;40.29
65716;BME280;63484;52.054;8.518;2023-07-16T10:07:21;100340.25;;;24.77;40.58
65716;BME280;63484;52.054;8.518;2023-07-16T10:12:25;100355.16;;;24.43;39.89
65716;BME280;63484;52.054;8.518;2023-07-16T10:17:26;100352.16;;;24.68;40.47
65716;BME280;63484;52.054;8.518;2023-07-16T10:22:34;100362.09;;;24.67;39.77
65716;BME280;63484;52.054;8.518;2023-07-16T10:27:39;100354.97;;;24.81;40.11
65716;BME280;63484;52.054;8.518;2023-07-16T10:32:41;100354.13;;;25.22;41.33
65716;BME280;63484;52.054;8.518;2023-07-16T10:37:46;100353.91;;;25.45;39.11
65716;BME280;63484;52.054;8.518;2023-07-16T10:42:48;100361.47;;;25.62;39.10
65716;BME280;63484;52.054;8.518;2023-07-16T10:47:51;100370.72;;;25.53;37.89
65716;BME280;63484;52.054;8.518;2023-07-16T10:52:55;100385.69;;;26.24;37.31
65716;BME280;63484;52.054;8.518;2023-07-16T10:57:57;100376.69;;;26.64;36.71
65716;BME280;63484;52.054;8.518;2023-07-16T11:02:59;100386.75;;;25.95;37.82
65716;BME280;63484;52.054;8.518;2023-07-16T11:08:03;100373.38;;;26.09;36.68
65716;BME280;63484;52.054;8.518;2023-07-16T11:13:04;100377.22;;;26.27;37.82
65716;BME280;63484;52.054;8.518;2023-07-16T11:18:07;100378.06;;;26.34;36.75
65716;BME280;63484;52.054;8.518;2023-07-16T11:23:13;100368.97;;;26.48;37.18
65716;BME280;63484;52.054;8.518;2023-07-16T11:28:15;100383.81;;;26.25;36.43
65716;BME280;63484;52.054;8.518;2023-07-16T11:33:17;100382.25;;;26.43;36.49
65716;BME280;63484;52.054;8.518;2023-07-16T11:38:20;100377.53;;;26.58;36.36
65716;BME280;63484;52.054;8.518;2023-07-16T11:43:21;100391.75;;;26.39;37.79
65716;BME280;63484;52.054;8.518;2023-07-16T11:48:23;100393.03;;;26.43;36.95
65716;BME280;63484;52.054;8.518;2023-07-16T11:53:26;100395.72;;;26.43;35.97
65716;BME280;63484;52.054;8.518;2023-07-16T11:58:28;100392.53;;;26.27;37.22
65716;BME280;63484;52.054;8.518;2023-07-16T12:03:29;100402.13;;;26.29;35.78
65716;BME280;63484;52.054;8.518;2023-07-16T12:08:32;100400.03;;;26.31;36.77
65716;BME280;63484;52.054;8.518;2023-07-16T12:13:34;100407.91;;;26.33;36.69
65716;BME280;63484;52.054;8.518;2023-07-16T12:18:35;100404.59;;;26.24;36.91
65716;BME280;63484;52.054;8.518;2023-07-16T12:23:38;100400.78;;;26.12;36.99
65716;BME280;63484;52.054;8.518;2023-07-16T12:28:40;100386.09;;;26.68;36.61
65716;BME280;63484;52.054;8.518;2023-07-16T12:33:44;100407.91;;;26.33;37.28
65716;BME280;63484;52.054;8.518;2023-07-16T12:38:49;100405.41;;;25.97;37.30
65716;BME280;63484;52.054;8.518;2023-07-16T12:43:50;100411.19;;;26.22;36.35
65716;BME280;63484;52.054;8.518;2023-07-16T12:48:52;100419.84;;;26.51;37.41
65716;BME280;63484;52.054;8.518;2023-07-16T12:53:57;100419.03;;;26.57;36.42
65716;BME280;63484;52.054;8.518;2023-07-16T12:59:03;100406.84;;;26.21;38.48
65716;BME280;63484;52.054;8.518;2023-07-16T13:04:04;100409.66;;;26.47;37.17
65716;BME280;63484;52.054;8.518;2023-07-16T13:09:10;100418.44;;;25.87;36.47
65716;BME280;63484;52.054;8.518;2023-07-16T13:14:11;100419.13;;;26.36;37.62
65716;BME280;63484;52.054;8.518;2023-07-16T13:19:13;100432.75;;;26.22;37.84
65716;BME280;63484;52.054;8.518;2023-07-16T13:24:16;100429.28;;;25.93;37.41
65716;BME280;63484;52.054;8.518;2023-07-16T13:29:18;100443.72;;;26.14;37.02
65716;BME280;63484;52.054;8.518;2023-07-16T13:34:20;100442.94;;;26.67;37.45
65716;BME280;63484;52.054;8.518;2023-07-16T13:39:23;100430.97;;;26.82;36.21
65716;BME280;63484;52.054;8.518;2023-07-16T13:44:24;100448.81;;;26.83;35.86
65716;BME280;63484;52.054;8.518;2023-07-16T13:49:26;100441.16;;;26.40;36.08
65716;BME280;63484;52.054;8.518;2023-07-16T13:54:29;100453.31;;;26.63;35.68
65716;BME280;63484;52.054;8.518;2023-07-16T13:59:31;100433.28;;;26.04;37.16
65716;BME280;63484;52.054;8.518;2023-07-16T14:04:35;100451.56;;;25.81;37.12
65716;BME280;63484;52.054;8.518;2023-07-16T14:09:38;100442.16;;;25.98;37.57
65716;BME280;63484;52.054;8.518;2023-07-16T14:14:42;100450.75;;;25.80;38.10
65716;BME280;63484;52.054;8.518;2023-07-16T14:19:44;100448.19;;;26.34;37.33
65716;BME280;63484;52.054;8.518;2023-07-16T14:24:47;100442.50;;;25.88;38.14
65716;BME280;63484;52.054;8.518;2023-07-16T14:29:51;100455.50;;;26.06;37.73
65716;BME280;63484;52.054;8.518;2023-07-16T14:34:53;100463.31;;;26.29;36.63
65716;BME280;63484;52.054;8.518;2023-07-16T14:39:58;100455.47;;;26.40;37.01
65716;BME280;63484;52.054;8.518;2023-07-16T14:44:59;100441.59;;;26.43;36.56
65716;BME280;63484;52.054;8.518;2023-07-16T14:50:01;100443.94;;;26.19;37.84
65716;BME280;63484;52.054;8.518;2023-07-16T14:55:05;100442.16;;;25.70;38.21
65716;BME280;63484;52.054;8.518;2023-07-16T15:00:08;100441.25;;;25.91;38.52
65716;BME280;63484;52.054;8.518;2023-07-16T15:05:11;100434.47;;;25.95;38.65
65716;BME280;63484;52.054;8.518;2023-07-16T15:10:17;100440.25;;;25.92;38.32
65716;BME280;63484;52.054;8.518;2023-07-16T15:15:18;100434.25;;;26.65;37.96
65716;BME280;63484;52.054;8.518;2023-07-16T15:20:20;100443.06;;;26.52;38.12
65716;BME280;63484;52.054;8.518;2023-07-16T15:25:26;100438.41;;;25.99;37.39
65716;BME280;63484;52.054;8.518;2023-07-16T15:30:28;100448.16;;;25.66;39.09
65716;BME280;63484;52.054;8.518;2023-07-16T15:35:30;100436.50;;;25.93;38.63
65716;BME280;63484;52.054;8.518;2023-07-16T15:40:33;100445.13;;;26.03;38.33
65716;BME280;63484;52.054;8.518;2023-07-16T15:45:34;100437.56;;;25.92;38.59
65716;BME280;63484;52.054;8.518;2023-07-16T15:50:36;100438.22;;;25.73;39.02
65716;BME280;63484;52.054;8.518;2023-07-16T15:55:39;100445.09;;;25.48;39.29
65716;BME280;63484;52.054;8.518;2023-07-16T16:00:41;100449.31;;;25.36;39.45
65716;BME280;63484;52.054;8.518;2023-07-16T16:05:44;100428.03;;;25.96;39.50
65716;BME280;63484;52.054;8.518;2023-07-16T16:10:48;100432.78;;;25.66;39.24
65716;BME280;63484;52.054;8.518;2023-07-16T16:15:51;100429.44;;;25.58;40.72
65716;BME280;63484;52.054;8.518;2023-07-16T16:20:52;100438.56;;;25.63;39.80
65716;BME280;63484;52.054;8.518;2023-07-16T16:25:55;100442.59;;;25.74;40.99
65716;BME280;63484;52.054;8.518;2023-07-16T16:30:57;100441.47;;;25.62;40.57
65716;BME280;63484;52.054;8.518;2023-07-16T16:35:58;100448.16;;;25.24;39.51
65716;BME280;63484;52.054;8.518;2023-07-16T16:41:02;100440.69;;;25.05;40.20
65716;BME280;63484;52.054;8.518;2023-07-16T16:46:08;100437.97;;;25.40;40.13
65716;BME280;63484;52.054;8.518;2023-07-16T16:51:10;100449.63;;;25.47;40.31
65716;BME280;63484;52.054;8.518;2023-07-16T16:56:15;100452.47;;;25.39;40.81
65716;BME280;63484;52.054;8.518;2023-07-16T17:01:17;100436.47;;;25.17;39.98
65716;BME280;63484;52.054;8.518;2023-07-16T17:06:19;100439.44;;;25.01;39.48
65716;BME280;63484;52.054;8.518;2023-07-16T17:11:24;100434.69;;;24.82;40.02
65716;BME280;63484;52.054;8.518;2023-07-16T17:16:26;100431.53;;;24.78;38.99
65716;BME280;63484;52.054;8.518;2023-07-16T17:21:27;100436.97;;;24.85;38.63
65716;BME280;63484;52.054;8.518;2023-07-16T17:26:31;100447.75;;;24.85;38.30
65716;BME280;63484;52.054;8.518;2023-07-16T17:31:35;100446.81;;;24.78;39.44
65716;BME280;63484;52.054;8.518;2023-07-16T17:36:36;100444.72;;;24.73;39.92
65716;BME280;63484;52.054;8.518;2023-07-16T17:41:39;100451.84;;;24.51;40.47
65716;BME280;63484;52.054;8.518;2023-07-16T17:46:41;100460.22;;;24.27;40.25
65716;BME280;63484;52.054;8.518;2023-07-16T17:51:42;100460.41;;;24.11;40.61
65716;BME280;63484;52.054;8.518;2023-07-16T17:56:45;100458.56;;;23.97;40.77
65716;BME280;63484;52.054;8.518;2023-07-16T18:01:47;100458.91;;;23.94;40.93
65716;BME280;63484;52.054;8.518;2023-07-16T18:06:51;100459.91;;;23.79;41.59
65716;BME280;63484;52.054;8.518;2023-07-16T18:11:53;100462.19;;;23.67;41.65
65716;BME280;63484;52.054;8.518;2023-07-16T18:16:56;100457.16;;;23.50;42.03
65716;BME280;63484;52.054;8.518;2023-07-16T18:21:58;100454.91;;;23.39;42.69
65716;BME280;63484;52.054;8.518;2023-07-16T18:27:00;100465.22;;;23.27;43.35
65716;BME280;63484;52.054;8.518;2023-07-16T18:32:04;100458.50;;;23.23;42.54
65716;BME280;63484;52.054;8.518;2023-07-16T18:37:06;100468.72;;;23.05;43.45
65716;BME280;63484;52.054;8.518;2023-07-16T18:42:09;100466.81;;;22.83;44.07
65716;BME280;63484;52.054;8.518;2023-07-16T18:47:11;100469.41;;;22.68;44.86
65716;BME280;63484;52.054;8.518;2023-07-16T18:52:14;100463.44;;;22.58;44.76
65716;BME280;63484;52.054;8.518;2023-07-16T18:57:19;100467.50;;;22.46;45.84
65716;BME280;63484;52.054;8.518;2023-07-16T19:02:21;100460.84;;;22.26;47.16
65716;BME280;63484;52.054;8.518;2023-07-16T19:07:25;100471.44;;;22.12;47.04
65716;BME280;63484;52.054;8.518;2023-07-16T19:12:30;100474.31;;;22.02;47.37
65716;BME280;63484;52.054;8.518;2023-07-16T19:17:31;100471.00;;;21.92;47.78
65716;BME280;63484;52.054;8.518;2023-07-16T19:22:34;100481.88;;;21.82;47.79
65716;BME280;63484;52.054;8.518;2023-07-16T19:27:37;100480.38;;;21.72;48.62
65716;BME280;63484;52.054;8.518;2023-07-16T19:32:41;100494.75;;;21.55;48.80
65716;BME280;63484;52.054;8.518;2023-07-16T19:37:42;100500.13;;;21.39;49.94
65716;BME280;63484;52.054;8.518;2023-07-16T19:42:45;100501.13;;;21.22;50.18
65716;BME280;63484;52.054;8.518;2023-07-16T19:47:47;100511.63;;;21.07;51.38
65716;BME280;63484;52.054;8.518;2023-07-16T19:52:48;100517.38;;;20.95;52.08
65716;BME280;63484;52.054;8.518;2023-07-16T19:57:51;100523.84;;;20.76;53.06
65716;BME280;63484;52.054;8.518;2023-07-16T20:02:53;100527.44;;;20.59;54.01
65716;BME280;63484;52.054;8.518;2023-07-16T20:07:56;100532.72;;;20.43;54.92
65716;BME280;63484;52.054;8.518;2023-07-16T20:12:59;100532.31;;;20.30;55.06
65716;BME280;63484;52.054;8.518;2023-07-16T20:18:00;100531.44;;;20.21;56.41
65716;BME280;63484;52.054;8.518;2023-07-16T20:23:04;100537.84;;;20.11;55.98
65716;BME280;63484;52.054;8.518;2023-07-16T20:28:07;100535.13;;;20.03;56.12
65716;BME280;63484;52.054;8.518;2023-07-16T20:33:09;100532.41;;;19.95;56.39
65716;BME280;63484;52.054;8.518;2023-07-16T20:38:11;100531.66;;;19.85;57.12
65716;BME280;63484;52.054;8.518;2023-07-16T20:43:14;100539.91;;;19.74;57.85
65716;BME280;63484;52.054;8.518;2023-07-16T20:48:16;100527.13;;;19.60;57.66
65716;BME280;63484;52.054;8.518;2023-07-16T20:53:18;100531.69;;;19.50;58.54
65716;BME280;63484;52.054;8.518;2023-07-16T20:58:21;100535.28;;;19.41;58.72
65716;BME280;63484;52.054;8.518;2023-07-16T21:03:22;100534.22;;;19.34;59.72
65716;BME280;63484;52.054;8.518;2023-07-16T21:08:25;100536.03;;;19.33;60.08
65716;BME280;63484;52.054;8.518;2023-07-16T21:13:28;100531.56;;;19.34;59.56
65716;BME280;63484;52.054;8.518;2023-07-16T21:18:29;100523.28;;;19.27;60.29
65716;BME280;63484;52.054;8.518;2023-07-16T21:23:31;100528.31;;;19.12;60.76
65716;BME280;63484;52.054;8.518;2023-07-16T21:28:36;100520.38;;;19.03;61.53
65716;BME280;63484;52.054;8.518;2023-07-16T21:33:37;100532.16;;;19.00;62.83
65716;BME280;63484;52.054;8.518;2023-07-16T21:38:39;100532.78;;;18.94;63.16
65716;BME280;63484;52.054;8.518;2023-07-16T21:43:42;100527.75;;;18.91;64.67
65716;BME280;63484;52.054;8.518;2023-07-16T21:48:43;100527.91;;;18.90;65.38
65716;BME280;63484;52.054;8.518;2023-07-16T21:53:45;100528.41;;;18.93;64.53
65716;BME280;63484;52.054;8.518;2023-07-16T21:58:48;100536.66;;;19.00;64.89
65716;BME280;63484;52.054;8.518;2023-07-16T22:03:49;100549.97;;;19.00;65.12
65716;BME280;63484;52.054;8.518;2023-07-16T22:08:51;100555.84;;;19.03;65.98
65716;BME280;63484;52.054;8.518;2023-07-16T22:13:54;100550.53;;;19.03;67.94
65716;BME280;63484;52.054;8.518;2023-07-16T22:18:55;100547.06;;;18.93;67.39
65716;BME280;63484;52.054;8.518;2023-07-16T22:23:57;100553.69;;;18.89;67.47
65716;BME280;63484;52.054;8.518;2023-07-16T22:28:59;100545.31;;;18.84;68.01
65716;BME280;63484;52.054;8.518;2023-07-16T22:34:01;100550.94;;;18.81;68.60
65716;BME280;63484;52.054;8.518;2023-07-16T22:39:03;100548.69;;;18.86;68.37
65716;BME280;63484;52.054;8.518;2023-07-16T22:44:06;100558.47;;;18.86;68.52
65716;BME280;63484;52.054;8.518;2023-07-16T22:49:07;100563.56;;;18.79;68.80
65716;BME280;63484;52.054;8.518;2023-07-16T22:54:12;100555.44;;;18.81;68.78
65716;BME280;63484;52.054;8.518;2023-07-16T22:59:15;100564.81;;;18.85;69.16
65716;BME280;63484;52.054;8.518;2023-07-16T23:04:17;100568.59;;;18.82;69.32
65716;BME280;63484;52.054;8.518;2023-07-16T23:09:18;100574.78;;;18.83;70.32
65716;BME280;63484;52.054;8.518;2023-07-16T23:14:21;100568.91;;;18.79;70.63
65716;BME280;63484;52.054;8.518;2023-07-16T23:19:23;100576.88;;;18.79;71.70
65716;BME280;63484;52.054;8.518;2023-07-16T23:24:24;100556.56;;;18.78;71.98
65716;BME280;63484;52.054;8.518;2023-07-16T23:29:27;100559.81;;;18.72;74.39
65716;BME280;63484;52.054;8.518;2023-07-16T23:34:29;100548.34;;;18.72;76.59
65716;BME280;63484;52.054;8.518;2023-07-16T23:39:30;100547.09;;;18.66;77.38
65716;BME280;63484;52.054;8.518;2023-07-16T23:44:36;100543.19;;;18.61;77.76
65716;BME280;63484;52.054;8.518;2023-07-16T23:49:37;100548.13;;;18.56;78.18
65716;BME280;63484;52.054;8.518;2023-07-16T23:54:39;100546.19;;;18.48;81.25
65716;BME280;63484;52.054;8.518;2023-07-16T23:59:41;100544.81;;;18.44;80.21
